^^
Saratoga-Weather Station Historical Data
Daily Summary for April 3, 2021 Units:  Metric    English   Both
Daily Weekly Monthly Yearly Custom
  High: Low: Average:
Temperature: 24.7 °C 15.3 °C 18.8 °C
Dew Point: 20.2 °C 14.7 °C 17.2 °C
Humidity: 97% 68% 91%
Wind Speed: 16.3km/h 0km/h 1.1km/h
Wind Gust: 20.9km/h - -
Wind- - South
Pressure: 1019.6 hPa 1016.3 hPa -
Precipitation: 4.6 mm    
Historical Graphs
 
 
Tabular Data for April 3, 2021
Time Temperature Dew Point Pressure Wind Wind Speed Wind Gust Humidity Rainfall Rate (Hourly) solar
00:00 16.4 °C 15.6 °C 1016.6 hPa Calm     95% 0.0 mm 0 W/m2
00:05 16.4 °C 15.6 °C 1016.6 hPa Calm   1.6 km/h 95% 0.0 mm 0 W/m2
00:10 16.4 °C 15.6 °C 1016.6 hPa Calm     95% 0.0 mm 0 W/m2
00:15 16.3 °C 15.5 °C 1016.6 hPa Calm     95% 0.0 mm 0 W/m2
00:20 16.3 °C 15.5 °C 1016.6 hPa Calm     95% 0.0 mm 0 W/m2
00:25 16.2 °C 15.4 °C 1016.6 hPa West 1.4 km/h 3.2 km/h 95% 0.0 mm 0 W/m2
00:30 16.2 °C 15.4 °C 1016.6 hPa Calm   1.6 km/h 95% 0.0 mm 0 W/m2
00:35 16.1 °C 15.3 °C 1016.3 hPa Calm   3.2 km/h 95% 0.0 mm 0 W/m2
00:40 16 °C 15.2 °C 1016.3 hPa West 1.4 km/h 1.6 km/h 95% 0.0 mm 0 W/m2
00:45 15.9 °C 15.1 °C 1016.6 hPa West 1.4 km/h 3.2 km/h 95% 0.0 mm 0 W/m2
00:50 15.9 °C 15.1 °C 1016.6 hPa Calm     95% 0.0 mm 0 W/m2
00:55 15.9 °C 15.1 °C 1016.6 hPa Calm     95% 0.0 mm 0 W/m2
01:01 16 °C 15.2 °C 1016.6 hPa Calm   3.2 km/h 95% 0.0 mm 0 W/m2
01:06 16.1 °C 15.3 °C 1016.9 hPa Calm   3.2 km/h 95% 0.0 mm 0 W/m2
01:11 16.1 °C 15.3 °C 1016.9 hPa West 1.4 km/h 1.6 km/h 95% 0.0 mm 0 W/m2
01:16 16.1 °C 15.3 °C 1016.9 hPa Calm   1.6 km/h 95% 0.0 mm 0 W/m2
01:21 16.1 °C 15.3 °C 1016.9 hPa Calm     95% 0.0 mm 0 W/m2
01:26 16.1 °C 15.5 °C 1016.9 hPa Calm     96% 0.0 mm 0 W/m2
01:31 16.1 °C 15.5 °C 1016.9 hPa Calm     96% 0.0 mm 0 W/m2
01:36 16.2 °C 15.6 °C 1016.9 hPa Calm     96% 0.0 mm 0 W/m2
01:41 16.2 °C 15.6 °C 1016.9 hPa Calm     96% 0.0 mm 0 W/m2
01:46 16.2 °C 15.6 °C 1016.9 hPa Calm     96% 0.0 mm 0 W/m2
01:51 16.2 °C 15.6 °C 1016.9 hPa Calm     96% 0.0 mm 0 W/m2
01:56 16.2 °C 15.6 °C 1016.9 hPa Calm     96% 0.0 mm 0 W/m2
02:01 16.2 °C 15.6 °C 1016.9 hPa Calm     96% 0.0 mm 0 W/m2
02:06 16.1 °C 15.5 °C 1016.9 hPa Calm     96% 0.0 mm 0 W/m2
02:11 16.1 °C 15.5 °C 1016.9 hPa Calm     96% 0.0 mm 0 W/m2
02:16 16 °C 15.4 °C 1016.9 hPa Calm     96% 0.0 mm 0 W/m2
02:21 16 °C 15.4 °C 1016.9 hPa Calm     96% 0.0 mm 0 W/m2
02:26 16 °C 15.4 °C 1017.3 hPa Calm     96% 0.0 mm 0 W/m2
02:31 15.9 °C 15.3 °C 1016.9 hPa Calm     96% 0.0 mm 0 W/m2
02:36 15.9 °C 15.3 °C 1016.9 hPa Calm     96% 0.0 mm 0 W/m2
02:41 15.9 °C 15.3 °C 1016.9 hPa Calm     96% 0.0 mm 0 W/m2
02:46 15.9 °C 15.3 °C 1016.9 hPa Calm     96% 0.0 mm 0 W/m2
02:51 15.9 °C 15.3 °C 1016.9 hPa Calm     96% 0.0 mm 0 W/m2
02:56 15.9 °C 15.3 °C 1016.9 hPa Calm     96% 0.0 mm 0 W/m2
03:01 15.9 °C 15.3 °C 1016.9 hPa Calm     96% 0.0 mm 0 W/m2
03:06 15.8 °C 15.2 °C 1017.3 hPa Calm     96% 0.0 mm 0 W/m2
03:11 15.8 °C 15.2 °C 1017.3 hPa Calm     96% 0.0 mm 0 W/m2
03:16 15.8 °C 15.2 °C 1017.3 hPa Calm     96% 0.0 mm 0 W/m2
03:21 15.8 °C 15.2 °C 1016.9 hPa West 1.4 km/h 3.2 km/h 96% 0.0 mm 0 W/m2
03:26 15.7 °C 15.1 °C 1016.9 hPa Calm     96% 0.0 mm 0 W/m2
03:31 15.7 °C 15.1 °C 1017.3 hPa West 3.2 km/h 3.2 km/h 96% 0.0 mm 0 W/m2
03:36 15.7 °C 15.1 °C 1016.9 hPa Calm     96% 0.0 mm 0 W/m2
03:41 15.6 °C 15 °C 1017.3 hPa Calm     96% 0.0 mm 0 W/m2
03:46 15.6 °C 15 °C 1017.3 hPa Calm     96% 0.0 mm 0 W/m2
03:51 15.6 °C 15 °C 1017.3 hPa Calm   1.6 km/h 96% 0.0 mm 0 W/m2
03:56 15.5 °C 14.9 °C 1017.3 hPa Calm     96% 0.0 mm 0 W/m2
04:01 15.5 °C 14.9 °C 1017.3 hPa Calm     96% 0.0 mm 0 W/m2
04:06 15.4 °C 14.8 °C 1017.3 hPa Calm     96% 0.0 mm 0 W/m2
04:11 15.4 °C 14.8 °C 1017.3 hPa Calm     96% 0.0 mm 0 W/m2
04:16 15.4 °C 14.8 °C 1017.3 hPa Calm     96% 0.0 mm 0 W/m2
04:21 15.4 °C 14.8 °C 1017.3 hPa Calm   1.6 km/h 96% 0.0 mm 0 W/m2
04:26 15.3 °C 14.7 °C 1017.3 hPa Calm   1.6 km/h 96% 0.0 mm 0 W/m2
04:32 15.3 °C 14.7 °C 1017.3 hPa Calm     96% 0.0 mm 0 W/m2
04:37 15.3 °C 14.7 °C 1017.3 hPa Calm     96% 0.0 mm 0 W/m2
04:42 15.3 °C 14.7 °C 1017.3 hPa Calm     96% 0.0 mm 0 W/m2
04:47 15.3 °C 14.7 °C 1017.3 hPa Calm     96% 0.0 mm 0 W/m2
04:52 15.3 °C 14.7 °C 1017.3 hPa Calm     96% 0.0 mm 0 W/m2
04:57 15.3 °C 14.7 °C 1017.3 hPa Calm     96% 0.0 mm 0 W/m2
05:02 15.3 °C 14.7 °C 1017.3 hPa Calm     96% 0.0 mm 0 W/m2
05:07 15.3 °C 14.7 °C 1017.3 hPa Calm     96% 0.0 mm 0 W/m2
05:12 15.3 °C 14.7 °C 1017.6 hPa Calm     96% 0.0 mm 0 W/m2
05:17 15.4 °C 14.8 °C 1017.6 hPa Calm     96% 0.0 mm 0 W/m2
05:22 15.3 °C 14.7 °C 1017.6 hPa Calm     96% 0.0 mm 0 W/m2
05:27 15.4 °C 14.8 °C 1017.3 hPa Calm     96% 0.0 mm 0 W/m2
05:32 15.4 °C 14.8 °C 1017.6 hPa Calm     96% 0.0 mm 0 W/m2
05:37 15.4 °C 14.8 °C 1017.6 hPa Calm     96% 0.0 mm 0 W/m2
05:42 15.4 °C 14.8 °C 1017.6 hPa Calm     96% 0.0 mm 0 W/m2
05:47 15.4 °C 14.8 °C 1017.6 hPa Calm     96% 0.0 mm 0 W/m2
05:52 15.4 °C 14.8 °C 1017.6 hPa Calm     96% 0.0 mm 5 W/m2
05:57 15.4 °C 14.8 °C 1017.6 hPa Calm     96% 0.0 mm 5 W/m2
06:02 15.4 °C 14.8 °C 1017.6 hPa Calm     96% 0.0 mm 5 W/m2
06:07 15.4 °C 14.8 °C 1017.6 hPa Calm     96% 0.0 mm 7 W/m2
06:12 15.4 °C 14.8 °C 1018.0 hPa Calm     96% 0.0 mm 7 W/m2
06:17 15.5 °C 14.9 °C 1018.0 hPa Calm     96% 0.0 mm 9 W/m2
06:22 15.5 °C 15 °C 1018.0 hPa Calm     97% 0.0 mm 11 W/m2
06:27 15.6 °C 15.1 °C 1018.0 hPa Calm     97% 0.0 mm 12 W/m2
06:32 15.6 °C 15.1 °C 1018.0 hPa Calm     97% 0.0 mm 16 W/m2
06:37 15.6 °C 15.1 °C 1018.0 hPa Calm     97% 0.0 mm 19 W/m2
06:42 15.7 °C 15.2 °C 1018.0 hPa Calm     97% 0.0 mm 19 W/m2
06:47 15.7 °C 15.2 °C 1018.0 hPa Calm     97% 0.0 mm 21 W/m2
06:52 15.7 °C 15.2 °C 1018.0 hPa Calm     97% 0.0 mm 25 W/m2
06:57 15.7 °C 15.2 °C 1018.0 hPa Calm     97% 0.0 mm 28 W/m2
07:02 15.7 °C 15.2 °C 1018.0 hPa Calm     97% 0.0 mm 32 W/m2
07:07 15.8 °C 15.3 °C 1018.0 hPa Calm     97% 0.0 mm 35 W/m2
07:12 15.8 °C 15.3 °C 1018.3 hPa Calm     97% 0.0 mm 39 W/m2
07:17 15.9 °C 15.4 °C 1018.3 hPa Calm     97% 0.0 mm 44 W/m2
07:22 15.9 °C 15.4 °C 1018.3 hPa Calm     97% 0.0 mm 51 W/m2
07:27 16 °C 15.5 °C 1018.3 hPa Calm     97% 0.0 mm 54 W/m2
07:32 16 °C 15.5 °C 1018.3 hPa Calm     97% 0.0 mm 53 W/m2
07:37 16.1 °C 15.6 °C 1018.6 hPa Calm     97% 0.0 mm 53 W/m2
07:42 16.1 °C 15.6 °C 1018.6 hPa Calm   1.6 km/h 97% 0.0 mm 56 W/m2
07:47 16.2 °C 15.6 °C 1018.6 hPa Calm     96% 0.0 mm 60 W/m2
07:52 16.2 °C 15.7 °C 1018.6 hPa Calm   1.6 km/h 97% 0.0 mm 62 W/m2
07:57 16.3 °C 15.8 °C 1018.6 hPa Calm     97% 0.0 mm 60 W/m2
08:02 16.3 °C 15.8 °C 1018.6 hPa Calm   1.6 km/h 97% 0.0 mm 49 W/m2
08:07 16.3 °C 15.7 °C 1018.6 hPa Calm     96% 0.0 mm 53 W/m2
08:12 16.4 °C 15.8 °C 1019.0 hPa Calm     96% 0.0 mm 62 W/m2
08:17 16.4 °C 15.8 °C 1019.0 hPa Calm     96% 0.0 mm 58 W/m2
08:22 16.5 °C 15.9 °C 1019.0 hPa Calm     96% 0.0 mm 62 W/m2
08:27 16.6 °C 16 °C 1019.0 hPa Calm     96% 0.0 mm 56 W/m2
08:32 16.6 °C 16 °C 1019.0 hPa Calm     96% 0.0 mm 62 W/m2
08:37 16.7 °C 15.9 °C 1019.0 hPa Calm   1.6 km/h 95% 0.0 mm 67 W/m2
08:42 16.8 °C 16 °C 1019.0 hPa Calm     95% 0.0 mm 63 W/m2
08:47 16.9 °C 16.1 °C 1019.0 hPa Calm     95% 0.0 mm 63 W/m2
08:52 16.9 °C 16.1 °C 1019.0 hPa Calm     95% 0.2 mm 76 W/m2
08:57 17.1 °C 16.3 °C 1019.0 hPa Calm     95% 0.2 mm 84 W/m2
09:02 17.1 °C 16.3 °C 1019.3 hPa Calm     95% 0.5 mm 93 W/m2
09:08 17.2 °C 16.2 °C 1019.3 hPa Calm     94% 0.5 mm 104 W/m2
09:13 17.2 °C 16.2 °C 1019.3 hPa Calm     94% 0.5 mm 114 W/m2
09:18 17.3 °C 16.3 °C 1019.3 hPa Calm     94% 0.5 mm 118 W/m2
09:23 17.4 °C 16.4 °C 1019.3 hPa Calm     94% 0.5 mm 125 W/m2
09:28 17.4 °C 16.4 °C 1019.3 hPa Calm     94% 0.8 mm 123 W/m2
09:33 17.5 °C 16.5 °C 1019.3 hPa Calm   1.6 km/h 94% 0.8 mm 121 W/m2
09:38 17.6 °C 16.6 °C 1019.0 hPa Calm     94% 1.0 mm 120 W/m2
09:43 17.6 °C 16.6 °C 1019.3 hPa Calm     94% 1.0 mm 125 W/m2
09:48 17.7 °C 16.7 °C 1019.3 hPa Calm     94% 1.0 mm 142 W/m2
09:53 17.8 °C 16.8 °C 1019.3 hPa Calm     94% 0.8 mm 160 W/m2
09:58 17.9 °C 16.9 °C 1019.3 hPa Calm     94% 0.8 mm 167 W/m2
10:03 17.9 °C 16.8 °C 1019.6 hPa East 3.2 km/h 3.2 km/h 93% 0.5 mm 193 W/m2
10:08 18 °C 16.9 °C 1019.6 hPa Calm   1.6 km/h 93% 0.5 mm 193 W/m2
10:13 18.1 °C 16.9 °C 1019.6 hPa Calm     93% 0.5 mm 218 W/m2
10:18 18.2 °C 16.9 °C 1019.6 hPa Calm     92% 0.5 mm 232 W/m2
10:23 18.4 °C 17.2 °C 1019.6 hPa East 4.7 km/h 4.8 km/h 93% 0.5 mm 251 W/m2
10:28 18.5 °C 17.2 °C 1019.6 hPa Calm   3.2 km/h 92% 0.2 mm 258 W/m2
10:33 18.6 °C 17.3 °C 1019.3 hPa Calm   3.2 km/h 92% 0.2 mm 255 W/m2
10:38 18.8 °C 17.5 °C 1019.3 hPa NE 4.7 km/h 6.4 km/h 92% 0.0 mm 258 W/m2
10:43 18.8 °C 17.5 °C 1019.6 hPa Calm   3.2 km/h 92% 0.0 mm 329 W/m2
10:48 19 °C 17.7 °C 1019.3 hPa ESE 1.4 km/h 6.4 km/h 92% 0.0 mm 302 W/m2
10:53 19.2 °C 17.9 °C 1019.3 hPa East 1.4 km/h 4.8 km/h 92% 0.0 mm 322 W/m2
10:58 19.3 °C 17.8 °C 1019.6 hPa ENE 1.4 km/h 4.8 km/h 91% 0.0 mm 520 W/m2
11:03 19.7 °C 18.4 °C 1019.6 hPa ENE 4.7 km/h 4.8 km/h 92% 0.0 mm 257 W/m2
11:08 19.7 °C 18 °C 1019.6 hPa NNE 1.4 km/h 3.2 km/h 90% 0.0 mm 281 W/m2
11:13 19.8 °C 18.1 °C 1019.6 hPa Calm   3.2 km/h 90% 0.0 mm 330 W/m2
11:18 19.8 °C 18.1 °C 1019.6 hPa Calm   4.8 km/h 90% 0.0 mm 415 W/m2
11:23 19.8 °C 18.1 °C 1019.6 hPa ENE 6.4 km/h 6.4 km/h 90% 0.0 mm 387 W/m2
11:28 19.7 °C 17.8 °C 1019.6 hPa ESE 3.2 km/h 4.8 km/h 89% 0.0 mm 345 W/m2
11:33 19.7 °C 17.8 °C 1019.6 hPa East 4.7 km/h 6.4 km/h 89% 0.0 mm 309 W/m2
11:38 19.7 °C 17.8 °C 1019.6 hPa Calm   4.8 km/h 89% 0.0 mm 299 W/m2
11:43 19.8 °C 18.1 °C 1019.6 hPa East 3.2 km/h 6.4 km/h 90% 0.0 mm 279 W/m2
11:48 19.7 °C 17.7 °C 1019.6 hPa East 1.4 km/h 6.4 km/h 88% 0.0 mm 271 W/m2
11:53 19.7 °C 17.8 °C 1019.6 hPa SE 3.2 km/h 6.4 km/h 89% 0.0 mm 288 W/m2
11:58 19.7 °C 18 °C 1019.6 hPa Calm   3.2 km/h 90% 0.0 mm 306 W/m2
12:03 19.9 °C 18.2 °C 1019.6 hPa East 1.4 km/h 4.8 km/h 90% 0.0 mm 338 W/m2
12:08 20.1 °C 18.2 °C 1019.6 hPa ESE 4.7 km/h 4.8 km/h 89% 0.0 mm 387 W/m2
12:13 20.2 °C 18.3 °C 1019.6 hPa ENE 1.4 km/h 9.7 km/h 89% 0.0 mm 399 W/m2
12:18 20.4 °C 18.3 °C 1019.3 hPa NE 1.4 km/h 3.2 km/h 88% 0.0 mm 427 W/m2
12:23 20.6 °C 18.4 °C 1019.3 hPa ESE 3.2 km/h 4.8 km/h 87% 0.0 mm 450 W/m2
12:28 20.8 °C 18.9 °C 1019.3 hPa East 3.2 km/h 4.8 km/h 89% 0.0 mm 563 W/m2
12:33 21 °C 18.6 °C 1019.3 hPa ESE 4.7 km/h 4.8 km/h 86% 0.0 mm 758 W/m2
12:38 21.3 °C 18.9 °C 1019.3 hPa Calm   1.6 km/h 86% 0.0 mm 536 W/m2
12:43 21.6 °C 18.8 °C 1019.3 hPa SE 1.4 km/h 1.6 km/h 84% 0.0 mm 464 W/m2
12:48 21.7 °C 18.9 °C 1019.3 hPa East 3.2 km/h 6.4 km/h 84% 0.0 mm 480 W/m2
12:53 21.7 °C 18.7 °C 1019.3 hPa ENE 3.2 km/h 6.4 km/h 83% 0.0 mm 635 W/m2
12:58 22 °C 19.2 °C 1019.3 hPa NNE 1.4 km/h 3.2 km/h 84% 0.0 mm 838 W/m2
13:03 22.4 °C 19.2 °C 1019.3 hPa ESE 1.4 km/h 6.4 km/h 82% 0.0 mm 1134 W/m2
13:08 22.7 °C 19.1 °C 1019.3 hPa Calm   6.4 km/h 80% 0.0 mm 870 W/m2
13:13 22.8 °C 19.2 °C 1019.3 hPa SE 4.7 km/h 8 km/h 80% 0.0 mm 671 W/m2
13:18 22.9 °C 18.9 °C 1019.0 hPa NE 6.4 km/h 8 km/h 78% 0.0 mm 946 W/m2
13:23 23 °C 18.7 °C 1019.0 hPa ENE 9.7 km/h 11.3 km/h 77% 0.0 mm 963 W/m2
13:28 22.9 °C 19.1 °C 1019.0 hPa ENE 4.7 km/h 8 km/h 79% 0.0 mm 937 W/m2
13:33 23 °C 19.4 °C 1019.0 hPa ENE 4.7 km/h 6.4 km/h 80% 0.0 mm 953 W/m2
13:38 23.3 °C 19.7 °C 1019.0 hPa ENE 6.4 km/h 8 km/h 80% 0.0 mm 1020 W/m2
13:43 23.5 °C 19.2 °C 1019.0 hPa East 3.2 km/h 4.8 km/h 77% 0.0 mm 821 W/m2
13:48 23.6 °C 19.3 °C 1019.0 hPa ENE 1.4 km/h 8 km/h 77% 0.0 mm 817 W/m2
13:53 23.7 °C 19 °C 1019.0 hPa ESE 1.4 km/h 11.3 km/h 75% 0.0 mm 737 W/m2
13:58 23.9 °C 19.2 °C 1019.0 hPa East 1.4 km/h 8 km/h 75% 0.0 mm 977 W/m2
14:03 24.3 °C 19.8 °C 1018.6 hPa NE 3.2 km/h 11.3 km/h 76% 0.0 mm 1039 W/m2
14:08 24.5 °C 19.6 °C 1018.6 hPa East 6.4 km/h 11.3 km/h 74% 0.0 mm 997 W/m2
14:13 24.7 °C 19.8 °C 1018.6 hPa East 4.7 km/h 11.3 km/h 74% 0.0 mm 1014 W/m2
14:18 24.7 °C 19.3 °C 1018.6 hPa ENE 4.7 km/h 9.7 km/h 72% 0.0 mm 937 W/m2
14:23 24.7 °C 19.5 °C 1018.6 hPa East 9.7 km/h 9.7 km/h 73% 0.0 mm 972 W/m2
14:28 24.6 °C 19 °C 1018.6 hPa Calm   3.2 km/h 71% 0.0 mm 313 W/m2
14:33 24.5 °C 18.9 °C 1018.6 hPa East 1.4 km/h 1.6 km/h 71% 0.0 mm 214 W/m2
14:38 24.4 °C 19 °C 1018.6 hPa SSE 1.4 km/h 3.2 km/h 72% 0.0 mm 234 W/m2
14:43 24.3 °C 19.1 °C 1018.6 hPa Calm   3.2 km/h 73% 0.0 mm 200 W/m2
14:48 24.2 °C 19.3 °C 1018.6 hPa ESE 6.4 km/h 9.7 km/h 74% 0.0 mm 232 W/m2
14:53 24.1 °C 19 °C 1018.6 hPa ESE 1.4 km/h 4.8 km/h 73% 0.0 mm 404 W/m2
14:58 24.1 °C 18.5 °C 1018.6 hPa Calm   4.8 km/h 71% 0.0 mm 403 W/m2
15:03 24.3 °C 18.9 °C 1018.6 hPa SW 3.2 km/h 11.3 km/h 72% 0.0 mm 508 W/m2
15:08 24.3 °C 18.2 °C 1018.6 hPa WSW 4.7 km/h 9.7 km/h 69% 0.0 mm 439 W/m2
15:13 24.2 °C 18.6 °C 1018.6 hPa West 4.7 km/h 11.3 km/h 71% 0.0 mm 346 W/m2
15:18 24 °C 18.4 °C 1018.6 hPa WNW 3.2 km/h 6.4 km/h 71% 0.0 mm 371 W/m2
15:23 24.1 °C 19 °C 1018.6 hPa WSW 3.2 km/h 3.2 km/h 73% 0.0 mm 341 W/m2
15:29 24.1 °C 18.1 °C 1018.6 hPa WNW 3.2 km/h 9.7 km/h 69% 0.0 mm 322 W/m2
15:34 24.1 °C 18.3 °C 1018.6 hPa Calm   3.2 km/h 70% 0.0 mm 322 W/m2
15:39 24.1 °C 17.8 °C 1018.6 hPa NW 1.4 km/h 4.8 km/h 68% 0.0 mm 318 W/m2
15:44 24.2 °C 18.6 °C 1018.6 hPa Calm   3.2 km/h 71% 0.0 mm 381 W/m2
15:49 24.3 °C 18.2 °C 1018.6 hPa Calm   6.4 km/h 69% 0.0 mm 408 W/m2
15:54 24.5 °C 18.4 °C 1018.6 hPa Calm   3.2 km/h 69% 0.0 mm 376 W/m2
15:59 24.6 °C 18.3 °C 1018.6 hPa West 3.2 km/h 6.4 km/h 68% 0.0 mm 288 W/m2
16:04 24.7 °C 18.4 °C 1018.6 hPa West 3.2 km/h 9.7 km/h 68% 0.0 mm 197 W/m2
16:09 24.6 °C 18.8 °C 1018.6 hPa West 1.4 km/h 4.8 km/h 70% 0.0 mm 144 W/m2
16:14 24.4 °C 18.3 °C 1019.0 hPa West 11.1 km/h 11.3 km/h 69% 0.0 mm 98 W/m2
16:19 24.1 °C 19.4 °C 1019.0 hPa Calm   3.2 km/h 75% 0.5 mm 79 W/m2
16:24 22.8 °C 18.8 °C 1019.0 hPa NW 16.3 km/h 20.9 km/h 78% 1.5 mm 84 W/m2
16:29 21.1 °C 17.9 °C 1018.6 hPa SW 4.7 km/h 12.9 km/h 82% 3.0 mm 88 W/m2
16:34 20.4 °C 18 °C 1018.6 hPa WSW 3.2 km/h 6.4 km/h 86% 3.0 mm 88 W/m2
16:39 20.1 °C 18 °C 1019.0 hPa WSW 3.2 km/h 6.4 km/h 88% 3.0 mm 81 W/m2
16:44 19.8 °C 18.1 °C 1019.0 hPa West 4.7 km/h 6.4 km/h 90% 3.0 mm 70 W/m2
16:49 19.7 °C 18.2 °C 1019.0 hPa West 3.2 km/h 11.3 km/h 91% 3.0 mm 51 W/m2
16:54 19.8 °C 18.3 °C 1018.6 hPa West 1.4 km/h 6.4 km/h 91% 3.0 mm 44 W/m2
16:59 19.8 °C 18.5 °C 1018.6 hPa WSW 1.4 km/h 11.3 km/h 92% 3.0 mm 39 W/m2
17:04 19.8 °C 18.5 °C 1018.6 hPa WSW 3.2 km/h 3.2 km/h 92% 3.0 mm 35 W/m2
17:09 19.6 °C 18.1 °C 1018.6 hPa WNW 1.4 km/h 11.3 km/h 91% 3.3 mm 39 W/m2
17:14 19.4 °C 17.7 °C 1018.6 hPa West 3.2 km/h 8 km/h 90% 3.3 mm 51 W/m2
17:19 19.3 °C 17.8 °C 1018.6 hPa West 3.2 km/h 4.8 km/h 91% 2.8 mm 81 W/m2
17:24 19.2 °C 17.7 °C 1018.6 hPa NW 4.7 km/h 11.3 km/h 91% 1.5 mm 118 W/m2
17:29 19.2 °C 17.7 °C 1018.3 hPa WSW 3.2 km/h 4.8 km/h 91% 0.5 mm 163 W/m2
17:34 19.2 °C 17.7 °C 1018.3 hPa West 1.4 km/h 11.3 km/h 91% 0.5 mm 206 W/m2
17:39 19.3 °C 18 °C 1018.3 hPa WNW 3.2 km/h 3.2 km/h 92% 0.5 mm 246 W/m2
17:44 19.4 °C 18.1 °C 1018.3 hPa WSW 1.4 km/h 4.8 km/h 92% 0.5 mm 260 W/m2
17:49 19.6 °C 18.4 °C 1018.3 hPa WNW 1.4 km/h 3.2 km/h 93% 0.5 mm 279 W/m2
17:54 19.8 °C 18.5 °C 1018.3 hPa West 3.2 km/h 4.8 km/h 92% 0.5 mm 336 W/m2
17:59 20.1 °C 18.9 °C 1018.3 hPa WNW 3.2 km/h 4.8 km/h 93% 0.5 mm 339 W/m2
18:04 20.3 °C 19 °C 1018.3 hPa WNW 3.2 km/h 4.8 km/h 92% 0.5 mm 253 W/m2
18:09 20.4 °C 19.1 °C 1018.3 hPa West 1.4 km/h 1.6 km/h 92% 0.5 mm 188 W/m2
18:14 20.6 °C 19.3 °C 1018.3 hPa Calm   1.6 km/h 92% 0.5 mm 163 W/m2
18:19 20.7 °C 19.4 °C 1018.3 hPa Calm   1.6 km/h 92% 0.5 mm 167 W/m2
18:24 20.8 °C 19.6 °C 1018.3 hPa Calm   3.2 km/h 93% 0.5 mm 179 W/m2
18:29 20.8 °C 19.3 °C 1018.3 hPa WNW 3.2 km/h 3.2 km/h 91% 0.2 mm 178 W/m2
18:34 20.9 °C 19.4 °C 1018.3 hPa West 3.2 km/h 6.4 km/h 91% 0.2 mm 193 W/m2
18:39 21.1 °C 19.6 °C 1018.3 hPa West 1.4 km/h 3.2 km/h 91% 0.0 mm 308 W/m2
18:44 21.2 °C 19.7 °C 1018.3 hPa WSW 1.4 km/h 3.2 km/h 91% 0.0 mm 183 W/m2
18:49 21.3 °C 19.8 °C 1018.3 hPa Calm   1.6 km/h 91% 0.0 mm 181 W/m2
18:54 21.4 °C 20 °C 1018.3 hPa Calm   3.2 km/h 92% 0.0 mm 209 W/m2
18:59 21.5 °C 20 °C 1018.3 hPa Calm   4.8 km/h 91% 0.0 mm 176 W/m2
19:04 21.6 °C 20.1 °C 1018.3 hPa Calm   3.2 km/h 91% 0.0 mm 179 W/m2
19:09 21.7 °C 20.2 °C 1018.3 hPa Calm     91% 0.0 mm 139 W/m2
19:14 21.7 °C 20.2 °C 1018.3 hPa WSW 1.4 km/h 3.2 km/h 91% 0.0 mm 116 W/m2
19:19 21.7 °C 20.2 °C 1018.3 hPa WSW 1.4 km/h 3.2 km/h 91% 0.0 mm 90 W/m2
19:24 21.6 °C 20.1 °C 1018.3 hPa WSW 1.4 km/h 3.2 km/h 91% 0.0 mm 83 W/m2
19:29 21.6 °C 20.1 °C 1018.3 hPa Calm     91% 0.0 mm 76 W/m2
19:34 21.4 °C 20 °C 1018.3 hPa Calm   3.2 km/h 92% 0.0 mm 70 W/m2
19:39 21.4 °C 19.9 °C 1018.3 hPa Calm     91% 0.0 mm 65 W/m2
19:44 21.3 °C 19.8 °C 1018.3 hPa WSW 1.4 km/h 3.2 km/h 91% 0.0 mm 63 W/m2
19:49 21.1 °C 19.6 °C 1018.3 hPa Calm   1.6 km/h 91% 0.0 mm 56 W/m2
19:54 20.9 °C 19.4 °C 1018.6 hPa WSW 3.2 km/h 3.2 km/h 91% 0.0 mm 53 W/m2
19:59 20.7 °C 19.2 °C 1018.3 hPa WSW 1.4 km/h 3.2 km/h 91% 0.0 mm 51 W/m2
20:04 20.5 °C 19 °C 1018.3 hPa Calm     91% 0.0 mm 47 W/m2
20:09 20.4 °C 19.1 °C 1018.3 hPa Calm     92% 0.0 mm 47 W/m2
20:14 20.3 °C 19 °C 1018.3 hPa Calm     92% 0.0 mm 49 W/m2
20:19 20.2 °C 18.9 °C 1018.3 hPa Calm     92% 0.0 mm 98 W/m2
20:24 20.2 °C 18.9 °C 1018.3 hPa Calm   1.6 km/h 92% 0.0 mm 120 W/m2
20:29 20.3 °C 19.1 °C 1018.3 hPa WSW 1.4 km/h 1.6 km/h 93% 0.0 mm 58 W/m2
20:34 20.3 °C 19.1 °C 1018.3 hPa Calm     93% 0.0 mm 42 W/m2
20:39 20.3 °C 19.1 °C 1018.0 hPa Calm   1.6 km/h 93% 0.0 mm 39 W/m2
20:44 20.3 °C 19.1 °C 1018.3 hPa Calm     93% 0.0 mm 39 W/m2
20:49 20.3 °C 19.1 °C 1018.3 hPa Calm     93% 0.0 mm 33 W/m2
20:54 20.2 °C 19 °C 1018.3 hPa Calm     93% 0.0 mm 32 W/m2
20:59 20.2 °C 19 °C 1018.3 hPa WSW 1.4 km/h 3.2 km/h 93% 0.0 mm 28 W/m2
21:04 20.1 °C 19.1 °C 1018.3 hPa Calm     94% 0.0 mm 23 W/m2
21:09 20.1 °C 19.1 °C 1018.3 hPa Calm     94% 0.0 mm 18 W/m2
21:14 20.1 °C 19.1 °C 1018.3 hPa Calm     94% 0.0 mm 12 W/m2
21:19 20 °C 19 °C 1018.3 hPa Calm     94% 0.0 mm 11 W/m2
21:24 19.9 °C 18.9 °C 1018.3 hPa Calm     94% 0.0 mm 7 W/m2
21:29 19.9 °C 18.9 °C 1018.6 hPa Calm     94% 0.0 mm 5 W/m2
21:34 19.8 °C 18.8 °C 1018.6 hPa Calm     94% 0.0 mm 0 W/m2
21:39 19.7 °C 18.7 °C 1018.6 hPa Calm     94% 0.0 mm 0 W/m2
21:44 19.7 °C 18.7 °C 1018.6 hPa Calm     94% 0.0 mm 0 W/m2
21:49 19.6 °C 18.6 °C 1019.0 hPa Calm     94% 0.0 mm 0 W/m2
21:54 19.6 °C 18.6 °C 1019.0 hPa Calm     94% 0.0 mm 0 W/m2
21:59 19.4 °C 18.4 °C 1019.0 hPa Calm     94% 0.0 mm 0 W/m2
22:04 19.3 °C 18.3 °C 1019.0 hPa Calm     94% 0.0 mm 0 W/m2
22:09 19.3 °C 18.3 °C 1019.0 hPa Calm     94% 0.0 mm 0 W/m2
22:14 19.2 °C 18.2 °C 1019.0 hPa Calm     94% 0.0 mm 0 W/m2
22:19 19.1 °C 18.1 °C 1019.0 hPa Calm     94% 0.0 mm 0 W/m2
22:24 18.9 °C 18.1 °C 1019.0 hPa Calm     95% 0.0 mm 0 W/m2
22:29 18.9 °C 17.9 °C 1019.0 hPa Calm     94% 0.0 mm 0 W/m2
22:34 18.8 °C 18 °C 1019.0 hPa Calm     95% 0.0 mm 0 W/m2
22:39 18.7 °C 17.9 °C 1019.0 hPa Calm     95% 0.0 mm 0 W/m2
22:44 18.7 °C 17.9 °C 1019.0 hPa Calm     95% 0.0 mm 0 W/m2
22:49 18.6 °C 17.8 °C 1019.0 hPa Calm     95% 0.0 mm 0 W/m2
22:54 18.5 °C 17.7 °C 1019.3 hPa Calm     95% 0.0 mm 0 W/m2
22:59 18.4 °C 17.6 °C 1019.3 hPa Calm     95% 0.0 mm 0 W/m2
23:04 18.3 °C 17.5 °C 1019.3 hPa Calm     95% 0.0 mm 0 W/m2
23:09 18.3 °C 17.5 °C 1019.3 hPa Calm     95% 0.0 mm 0 W/m2
23:14 18.2 °C 17.4 °C 1019.3 hPa Calm     95% 0.0 mm 0 W/m2
23:19 18.1 °C 17.3 °C 1019.3 hPa Calm     95% 0.0 mm 0 W/m2
23:24 18.1 °C 17.3 °C 1019.3 hPa WSW 3.2 km/h 3.2 km/h 95% 0.0 mm 0 W/m2
23:29 18.1 °C 17.3 °C 1019.3 hPa Calm   1.6 km/h 95% 0.0 mm 0 W/m2
23:34 18 °C 17.2 °C 1019.3 hPa Calm     95% 0.0 mm 0 W/m2
23:39 17.9 °C 17.1 °C 1019.0 hPa Calm     95% 0.0 mm 0 W/m2
23:44 17.9 °C 17.1 °C 1019.0 hPa Calm     95% 0.0 mm 0 W/m2
23:49 17.8 °C 17 °C 1019.3 hPa Calm   1.6 km/h 95% 0.0 mm 0 W/m2
23:54 17.8 °C 17.2 °C 1019.0 hPa Calm     96% 0.0 mm 0 W/m2
23:59 17.8 °C 17.2 °C 1019.3 hPa Calm     96% 0.0 mm 0 W/m2
Juneau County Weather
Compliments of Weather Underground - 4 mb